Terminal Aerodrome Forecast
Issued by NWS

Home | Current Version | Previous Version | Text Only | Print | Product List | Glossary On
Versions: 1 2 3 4 5 6 7 8 9 10 11 12 13
000
FTUS41 KCAR 230500 RRA
TAFPQI
TAF
KPQI 230547Z 2306/2406 14006KT P6SM -RA SCT015 OVC050
     FM230700 14005KT 6SM -RA BKN015 OVC035
     FM231500 36006KT P6SM SCT015 OVC035
     FM231900 35008KT P6SM BKN035 OVC050
     FM232300 34010KT 6SM -RA OVC015
      AMD LTD TO CLD VIS AND WIND=

USA.gov is the U.S. government's official web portal to all federal, state and local government web resources and services.